sensor_id;sensor_type;location;lat;lon;timestamp;P1;durP1;ratioP1;P2;durP2;ratioP2
54121;SDS011;40029;58.708;50.190;2023-06-14T00:01:09;10.25;;;5.18;;
54121;SDS011;40029;58.708;50.190;2023-06-14T00:03:40;14.43;;;4.88;;
54121;SDS011;40029;58.708;50.190;2023-06-14T00:06:12;14.10;;;4.13;;
54121;SDS011;40029;58.708;50.190;2023-06-14T00:08:43;9.05;;;5.05;;
54121;SDS011;40029;58.708;50.190;2023-06-14T00:11:14;15.63;;;5.50;;
54121;SDS011;40029;58.708;50.190;2023-06-14T00:13:45;13.73;;;5.43;;
54121;SDS011;40029;58.708;50.190;2023-06-14T00:16:17;14.57;;;4.95;;
54121;SDS011;40029;58.708;50.190;2023-06-14T00:18:49;13.75;;;4.40;;
54121;SDS011;40029;58.708;50.190;2023-06-14T00:21:22;7.43;;;4.40;;
54121;SDS011;40029;58.708;50.190;2023-06-14T00:23:53;8.10;;;4.40;;
54121;SDS011;40029;58.708;50.190;2023-06-14T00:26:25;6.95;;;3.63;;
54121;SDS011;40029;58.708;50.190;2023-06-14T00:28:58;10.07;;;3.65;;
54121;SDS011;40029;58.708;50.190;2023-06-14T00:31:47;9.98;;;3.38;;
54121;SDS011;40029;58.708;50.190;2023-06-14T00:34:18;13.80;;;3.88;;
54121;SDS011;40029;58.708;50.190;2023-06-14T00:36:50;8.80;;;4.28;;
54121;SDS011;40029;58.708;50.190;2023-06-14T00:39:21;5.18;;;3.70;;
54121;SDS011;40029;58.708;50.190;2023-06-14T00:41:52;7.05;;;3.90;;
54121;SDS011;40029;58.708;50.190;2023-06-14T00:44:24;7.60;;;3.50;;
54121;SDS011;40029;58.708;50.190;2023-06-14T00:46:55;5.35;;;3.70;;
54121;SDS011;40029;58.708;50.190;2023-06-14T00:49:28;8.43;;;3.63;;
54121;SDS011;40029;58.708;50.190;2023-06-14T00:52:00;10.38;;;3.42;;
54121;SDS011;40029;58.708;50.190;2023-06-14T00:54:32;6.50;;;3.70;;
54121;SDS011;40029;58.708;50.190;2023-06-14T00:57:04;9.18;;;3.83;;
54121;SDS011;40029;58.708;50.190;2023-06-14T00:59:38;6.72;;;3.40;;
54121;SDS011;40029;58.708;50.190;2023-06-14T01:02:14;7.90;;;3.50;;
54121;SDS011;40029;58.708;50.190;2023-06-14T01:04:46;6.05;;;4.00;;
54121;SDS011;40029;58.708;50.190;2023-06-14T01:13:02;13.45;;;5.65;;
54121;SDS011;40029;58.708;50.190;2023-06-14T01:15:40;9.07;;;5.68;;
54121;SDS011;40029;58.708;50.190;2023-06-14T01:18:13;10.98;;;5.53;;
54121;SDS011;40029;58.708;50.190;2023-06-14T01:20:48;10.75;;;4.95;;
54121;SDS011;40029;58.708;50.190;2023-06-14T01:23:21;8.38;;;4.72;;
54121;SDS011;40029;58.708;50.190;2023-06-14T01:25:53;9.20;;;5.05;;
54121;SDS011;40029;58.708;50.190;2023-06-14T01:28:24;16.50;;;5.10;;
54121;SDS011;40029;58.708;50.190;2023-06-14T01:30:59;5.00;;;3.30;;
54121;SDS011;40029;58.708;50.190;2023-06-14T01:33:34;8.82;;;3.90;;
54121;SDS011;40029;58.708;50.190;2023-06-14T01:36:07;4.93;;;3.13;;
54121;SDS011;40029;58.708;50.190;2023-06-14T01:38:40;9.15;;;3.25;;
54121;SDS011;40029;58.708;50.190;2023-06-14T01:41:12;6.72;;;4.20;;
54121;SDS011;40029;58.708;50.190;2023-06-14T01:43:45;8.25;;;3.60;;
54121;SDS011;40029;58.708;50.190;2023-06-14T01:46:19;11.15;;;4.00;;
54121;SDS011;40029;58.708;50.190;2023-06-14T01:48:51;8.40;;;3.15;;
54121;SDS011;40029;58.708;50.190;2023-06-14T01:51:24;7.65;;;3.85;;
54121;SDS011;40029;58.708;50.190;2023-06-14T01:53:55;3.70;;;2.95;;
54121;SDS011;40029;58.708;50.190;2023-06-14T01:56:26;6.05;;;3.35;;
54121;SDS011;40029;58.708;50.190;2023-06-14T01:58:57;8.02;;;3.60;;
54121;SDS011;40029;58.708;50.190;2023-06-14T02:01:28;11.52;;;4.40;;
54121;SDS011;40029;58.708;50.190;2023-06-14T02:04:00;9.27;;;3.42;;
54121;SDS011;40029;58.708;50.190;2023-06-14T02:06:31;4.97;;;2.97;;
54121;SDS011;40029;58.708;50.190;2023-06-14T02:09:02;9.73;;;2.88;;
54121;SDS011;40029;58.708;50.190;2023-06-14T02:11:34;4.20;;;2.50;;
54121;SDS011;40029;58.708;50.190;2023-06-14T02:14:05;6.18;;;2.47;;
54121;SDS011;40029;58.708;50.190;2023-06-14T02:16:37;7.10;;;2.40;;
54121;SDS011;40029;58.708;50.190;2023-06-14T02:19:09;4.30;;;2.38;;
54121;SDS011;40029;58.708;50.190;2023-06-14T02:21:40;2.25;;;1.60;;
54121;SDS011;40029;58.708;50.190;2023-06-14T02:24:12;2.92;;;2.47;;
54121;SDS011;40029;58.708;50.190;2023-06-14T02:26:44;4.47;;;2.00;;
54121;SDS011;40029;58.708;50.190;2023-06-14T02:29:19;5.63;;;2.10;;
54121;SDS011;40029;58.708;50.190;2023-06-14T02:31:51;3.50;;;2.30;;
54121;SDS011;40029;58.708;50.190;2023-06-14T02:34:25;4.75;;;2.17;;
54121;SDS011;40029;58.708;50.190;2023-06-14T02:37:16;2.72;;;2.03;;
54121;SDS011;40029;58.708;50.190;2023-06-14T02:39:47;3.08;;;1.95;;
54121;SDS011;40029;58.708;50.190;2023-06-14T02:42:19;2.58;;;1.92;;
54121;SDS011;40029;58.708;50.190;2023-06-14T02:44:51;3.72;;;1.90;;
54121;SDS011;40029;58.708;50.190;2023-06-14T02:47:23;4.22;;;1.98;;
54121;SDS011;40029;58.708;50.190;2023-06-14T02:49:55;4.45;;;1.92;;
54121;SDS011;40029;58.708;50.190;2023-06-14T02:52:27;3.15;;;2.10;;
54121;SDS011;40029;58.708;50.190;2023-06-14T02:54:58;3.88;;;1.77;;
54121;SDS011;40029;58.708;50.190;2023-06-14T02:57:30;4.07;;;1.90;;
54121;SDS011;40029;58.708;50.190;2023-06-14T03:00:02;5.30;;;2.13;;
54121;SDS011;40029;58.708;50.190;2023-06-14T03:02:36;3.00;;;1.80;;
54121;SDS011;40029;58.708;50.190;2023-06-14T03:05:08;3.70;;;1.90;;
54121;SDS011;40029;58.708;50.190;2023-06-14T03:07:59;7.43;;;2.33;;
54121;SDS011;40029;58.708;50.190;2023-06-14T03:10:31;4.40;;;2.22;;
54121;SDS011;40029;58.708;50.190;2023-06-14T03:13:03;5.72;;;2.53;;
54121;SDS011;40029;58.708;50.190;2023-06-14T03:15:35;4.32;;;2.28;;
54121;SDS011;40029;58.708;50.190;2023-06-14T03:18:07;2.83;;;2.08;;
54121;SDS011;40029;58.708;50.190;2023-06-14T03:20:58;4.30;;;1.77;;
54121;SDS011;40029;58.708;50.190;2023-06-14T03:23:31;4.22;;;2.22;;
54121;SDS011;40029;58.708;50.190;2023-06-14T03:26:02;5.53;;;2.03;;
54121;SDS011;40029;58.708;50.190;2023-06-14T03:28:34;2.75;;;1.73;;
54121;SDS011;40029;58.708;50.190;2023-06-14T03:31:05;2.95;;;2.50;;
54121;SDS011;40029;58.708;50.190;2023-06-14T03:33:38;4.28;;;2.47;;
54121;SDS011;40029;58.708;50.190;2023-06-14T03:36:27;5.20;;;1.92;;
54121;SDS011;40029;58.708;50.190;2023-06-14T03:38:59;6.93;;;4.30;;
54121;SDS011;40029;58.708;50.190;2023-06-14T03:41:31;2.08;;;1.83;;
54121;SDS011;40029;58.708;50.190;2023-06-14T03:44:02;9.25;;;2.63;;
54121;SDS011;40029;58.708;50.190;2023-06-14T03:46:34;4.72;;;1.88;;
54121;SDS011;40029;58.708;50.190;2023-06-14T03:49:06;4.93;;;2.20;;
54121;SDS011;40029;58.708;50.190;2023-06-14T03:51:38;7.53;;;2.13;;
54121;SDS011;40029;58.708;50.190;2023-06-14T03:54:10;6.72;;;2.53;;
54121;SDS011;40029;58.708;50.190;2023-06-14T03:56:42;18.60;;;2.40;;
54121;SDS011;40029;58.708;50.190;2023-06-14T03:59:15;8.77;;;2.78;;
54121;SDS011;40029;58.708;50.190;2023-06-14T04:01:46;2.88;;;1.83;;
54121;SDS011;40029;58.708;50.190;2023-06-14T04:04:19;5.30;;;2.03;;
54121;SDS011;40029;58.708;50.190;2023-06-14T04:06:53;4.10;;;1.98;;
54121;SDS011;40029;58.708;50.190;2023-06-14T04:09:42;10.13;;;2.47;;
54121;SDS011;40029;58.708;50.190;2023-06-14T04:12:14;5.57;;;2.05;;
54121;SDS011;40029;58.708;50.190;2023-06-14T04:14:45;4.30;;;2.05;;
54121;SDS011;40029;58.708;50.190;2023-06-14T04:17:16;11.57;;;2.53;;
54121;SDS011;40029;58.708;50.190;2023-06-14T04:19:49;6.40;;;2.15;;
54121;SDS011;40029;58.708;50.190;2023-06-14T04:22:21;6.75;;;1.90;;
54121;SDS011;40029;58.708;50.190;2023-06-14T04:24:52;2.50;;;1.98;;
54121;SDS011;40029;58.708;50.190;2023-06-14T04:27:26;6.13;;;2.33;;
54121;SDS011;40029;58.708;50.190;2023-06-14T04:29:57;4.50;;;2.70;;
54121;SDS011;40029;58.708;50.190;2023-06-14T04:32:37;4.10;;;1.92;;
54121;SDS011;40029;58.708;50.190;2023-06-14T04:35:16;15.13;;;2.35;;
54121;SDS011;40029;58.708;50.190;2023-06-14T04:37:49;5.45;;;1.80;;
54121;SDS011;40029;58.708;50.190;2023-06-14T04:40:22;5.13;;;2.30;;
54121;SDS011;40029;58.708;50.190;2023-06-14T04:42:53;28.27;;;3.15;;
54121;SDS011;40029;58.708;50.190;2023-06-14T04:45:25;6.40;;;1.90;;
54121;SDS011;40029;58.708;50.190;2023-06-14T04:48:03;6.07;;;1.77;;
54121;SDS011;40029;58.708;50.190;2023-06-14T04:50:35;17.55;;;2.80;;
54121;SDS011;40029;58.708;50.190;2023-06-14T04:53:06;17.02;;;3.42;;
54121;SDS011;40029;58.708;50.190;2023-06-14T04:55:39;7.78;;;1.75;;
54121;SDS011;40029;58.708;50.190;2023-06-14T04:58:12;4.72;;;2.00;;
54121;SDS011;40029;58.708;50.190;2023-06-14T05:00:44;4.25;;;1.90;;
54121;SDS011;40029;58.708;50.190;2023-06-14T05:03:15;6.63;;;2.15;;
54121;SDS011;40029;58.708;50.190;2023-06-14T05:05:49;2.42;;;1.85;;
54121;SDS011;40029;58.708;50.190;2023-06-14T05:08:22;4.55;;;2.05;;
54121;SDS011;40029;58.708;50.190;2023-06-14T05:11:12;5.97;;;1.73;;
54121;SDS011;40029;58.708;50.190;2023-06-14T05:13:43;4.30;;;1.60;;
54121;SDS011;40029;58.708;50.190;2023-06-14T05:16:17;5.50;;;1.42;;
54121;SDS011;40029;58.708;50.190;2023-06-14T05:18:50;2.78;;;1.80;;
54121;SDS011;40029;58.708;50.190;2023-06-14T05:21:21;4.50;;;1.80;;
54121;SDS011;40029;58.708;50.190;2023-06-14T05:23:52;5.18;;;1.95;;
54121;SDS011;40029;58.708;50.190;2023-06-14T05:26:24;3.72;;;1.75;;
54121;SDS011;40029;58.708;50.190;2023-06-14T05:28:59;7.38;;;2.10;;
54121;SDS011;40029;58.708;50.190;2023-06-14T05:31:32;2.20;;;1.70;;
54121;SDS011;40029;58.708;50.190;2023-06-14T05:34:03;1.40;;;1.25;;
54121;SDS011;40029;58.708;50.190;2023-06-14T05:36:35;6.50;;;1.70;;
54121;SDS011;40029;58.708;50.190;2023-06-14T05:39:07;4.35;;;1.88;;
54121;SDS011;40029;58.708;50.190;2023-06-14T05:41:39;2.25;;;1.63;;
54121;SDS011;40029;58.708;50.190;2023-06-14T05:44:10;4.47;;;1.80;;
54121;SDS011;40029;58.708;50.190;2023-06-14T05:46:41;2.08;;;1.67;;
54121;SDS011;40029;58.708;50.190;2023-06-14T05:49:12;5.53;;;1.67;;
54121;SDS011;40029;58.708;50.190;2023-06-14T05:51:43;4.00;;;1.63;;
54121;SDS011;40029;58.708;50.190;2023-06-14T05:54:14;2.45;;;1.52;;
54121;SDS011;40029;58.708;50.190;2023-06-14T05:56:45;3.30;;;1.60;;
54121;SDS011;40029;58.708;50.190;2023-06-14T05:59:17;2.42;;;1.52;;
54121;SDS011;40029;58.708;50.190;2023-06-14T06:01:48;3.08;;;1.50;;
54121;SDS011;40029;58.708;50.190;2023-06-14T06:04:19;6.30;;;1.67;;
54121;SDS011;40029;58.708;50.190;2023-06-14T06:06:51;4.75;;;1.45;;
54121;SDS011;40029;58.708;50.190;2023-06-14T06:09:40;5.25;;;2.30;;
54121;SDS011;40029;58.708;50.190;2023-06-14T06:12:11;2.33;;;1.48;;
54121;SDS011;40029;58.708;50.190;2023-06-14T06:14:42;3.33;;;2.78;;
54121;SDS011;40029;58.708;50.190;2023-06-14T06:17:13;7.30;;;2.28;;
54121;SDS011;40029;58.708;50.190;2023-06-14T06:19:44;2.70;;;1.80;;
54121;SDS011;40029;58.708;50.190;2023-06-14T06:22:16;11.00;;;1.77;;
54121;SDS011;40029;58.708;50.190;2023-06-14T06:24:47;2.90;;;2.20;;
54121;SDS011;40029;58.708;50.190;2023-06-14T06:27:19;5.53;;;2.67;;
54121;SDS011;40029;58.708;50.190;2023-06-14T06:29:51;6.35;;;2.10;;
54121;SDS011;40029;58.708;50.190;2023-06-14T06:32:22;6.22;;;2.00;;
54121;SDS011;40029;58.708;50.190;2023-06-14T06:34:53;5.82;;;2.22;;
54121;SDS011;40029;58.708;50.190;2023-06-14T06:37:24;2.75;;;1.95;;
54121;SDS011;40029;58.708;50.190;2023-06-14T06:39:56;3.47;;;1.58;;
54121;SDS011;40029;58.708;50.190;2023-06-14T06:42:27;12.68;;;2.65;;
54121;SDS011;40029;58.708;50.190;2023-06-14T06:44:58;8.45;;;2.28;;
54121;SDS011;40029;58.708;50.190;2023-06-14T06:47:29;8.10;;;2.30;;
54121;SDS011;40029;58.708;50.190;2023-06-14T06:50:01;10.02;;;2.13;;
54121;SDS011;40029;58.708;50.190;2023-06-14T06:52:37;7.60;;;1.75;;
54121;SDS011;40029;58.708;50.190;2023-06-14T06:55:08;4.32;;;2.20;;
54121;SDS011;40029;58.708;50.190;2023-06-14T06:57:42;13.40;;;2.55;;
54121;SDS011;40029;58.708;50.190;2023-06-14T07:00:13;4.85;;;2.03;;
54121;SDS011;40029;58.708;50.190;2023-06-14T07:02:44;7.88;;;2.78;;
54121;SDS011;40029;58.708;50.190;2023-06-14T07:05:15;3.17;;;2.20;;
54121;SDS011;40029;58.708;50.190;2023-06-14T07:07:47;4.63;;;1.98;;
54121;SDS011;40029;58.708;50.190;2023-06-14T07:10:18;3.55;;;1.63;;
54121;SDS011;40029;58.708;50.190;2023-06-14T07:12:49;8.60;;;2.00;;
54121;SDS011;40029;58.708;50.190;2023-06-14T07:15:21;34.45;;;3.53;;
54121;SDS011;40029;58.708;50.190;2023-06-14T07:17:52;8.77;;;2.30;;
54121;SDS011;40029;58.708;50.190;2023-06-14T07:20:23;36.55;;;4.07;;
54121;SDS011;40029;58.708;50.190;2023-06-14T07:22:55;3.80;;;1.90;;
54121;SDS011;40029;58.708;50.190;2023-06-14T07:25:26;2.65;;;1.83;;
54121;SDS011;40029;58.708;50.190;2023-06-14T07:27:58;5.93;;;1.88;;
54121;SDS011;40029;58.708;50.190;2023-06-14T07:30:29;4.70;;;2.00;;
54121;SDS011;40029;58.708;50.190;2023-06-14T07:33:00;12.10;;;3.78;;
54121;SDS011;40029;58.708;50.190;2023-06-14T07:35:32;2.63;;;1.88;;
54121;SDS011;40029;58.708;50.190;2023-06-14T07:38:03;2.70;;;2.05;;
54121;SDS011;40029;58.708;50.190;2023-06-14T07:40:34;5.40;;;2.97;;
54121;SDS011;40029;58.708;50.190;2023-06-14T07:43:05;4.47;;;2.45;;
54121;SDS011;40029;58.708;50.190;2023-06-14T07:45:37;21.48;;;3.58;;
54121;SDS011;40029;58.708;50.190;2023-06-14T07:48:09;4.35;;;2.03;;
54121;SDS011;40029;58.708;50.190;2023-06-14T07:50:40;7.63;;;2.63;;
54121;SDS011;40029;58.708;50.190;2023-06-14T07:53:30;7.13;;;1.90;;
54121;SDS011;40029;58.708;50.190;2023-06-14T07:56:01;5.85;;;2.25;;
54121;SDS011;40029;58.708;50.190;2023-06-14T07:58:33;15.27;;;2.70;;
54121;SDS011;40029;58.708;50.190;2023-06-14T08:01:04;15.68;;;4.30;;
54121;SDS011;40029;58.708;50.190;2023-06-14T08:03:38;12.25;;;2.40;;
54121;SDS011;40029;58.708;50.190;2023-06-14T08:06:09;6.68;;;2.13;;
54121;SDS011;40029;58.708;50.190;2023-06-14T08:08:40;5.05;;;1.88;;
54121;SDS011;40029;58.708;50.190;2023-06-14T08:11:12;10.88;;;2.28;;
54121;SDS011;40029;58.708;50.190;2023-06-14T08:13:43;4.13;;;2.00;;
54121;SDS011;40029;58.708;50.190;2023-06-14T08:16:14;4.30;;;1.60;;
54121;SDS011;40029;58.708;50.190;2023-06-14T08:18:45;5.53;;;2.05;;
54121;SDS011;40029;58.708;50.190;2023-06-14T08:21:16;7.47;;;2.03;;
54121;SDS011;40029;58.708;50.190;2023-06-14T08:23:48;4.13;;;2.10;;
54121;SDS011;40029;58.708;50.190;2023-06-14T08:26:20;8.25;;;1.95;;
54121;SDS011;40029;58.708;50.190;2023-06-14T08:28:51;7.03;;;2.03;;
54121;SDS011;40029;58.708;50.190;2023-06-14T08:31:22;7.38;;;2.13;;
54121;SDS011;40029;58.708;50.190;2023-06-14T08:33:54;6.55;;;2.05;;
54121;SDS011;40029;58.708;50.190;2023-06-14T08:36:25;9.43;;;2.03;;
54121;SDS011;40029;58.708;50.190;2023-06-14T08:38:57;5.20;;;1.88;;
54121;SDS011;40029;58.708;50.190;2023-06-14T08:41:28;5.82;;;2.70;;
54121;SDS011;40029;58.708;50.190;2023-06-14T08:44:00;7.38;;;2.38;;
54121;SDS011;40029;58.708;50.190;2023-06-14T08:46:32;2.95;;;2.00;;
54121;SDS011;40029;58.708;50.190;2023-06-14T08:49:04;2.35;;;1.85;;
54121;SDS011;40029;58.708;50.190;2023-06-14T08:51:37;1.67;;;1.58;;
54121;SDS011;40029;58.708;50.190;2023-06-14T08:54:11;8.27;;;1.88;;
54121;SDS011;40029;58.708;50.190;2023-06-14T08:56:43;17.73;;;3.08;;
54121;SDS011;40029;58.708;50.190;2023-06-14T08:59:14;7.95;;;2.00;;
54121;SDS011;40029;58.708;50.190;2023-06-14T09:01:46;7.63;;;2.55;;
54121;SDS011;40029;58.708;50.190;2023-06-14T09:04:18;6.65;;;1.70;;
54121;SDS011;40029;58.708;50.190;2023-06-14T09:06:50;5.43;;;2.03;;
54121;SDS011;40029;58.708;50.190;2023-06-14T09:09:23;2.10;;;1.90;;
54121;SDS011;40029;58.708;50.190;2023-06-14T09:11:54;4.80;;;2.00;;
54121;SDS011;40029;58.708;50.190;2023-06-14T09:14:26;7.07;;;2.03;;
54121;SDS011;40029;58.708;50.190;2023-06-14T09:16:57;5.22;;;2.25;;
54121;SDS011;40029;58.708;50.190;2023-06-14T09:19:29;27.98;;;3.88;;
54121;SDS011;40029;58.708;50.190;2023-06-14T09:22:00;4.88;;;1.88;;
54121;SDS011;40029;58.708;50.190;2023-06-14T09:24:31;4.43;;;1.85;;
54121;SDS011;40029;58.708;50.190;2023-06-14T09:27:03;8.52;;;2.30;;
54121;SDS011;40029;58.708;50.190;2023-06-14T09:29:34;6.45;;;2.22;;
54121;SDS011;40029;58.708;50.190;2023-06-14T09:32:05;3.70;;;1.88;;
54121;SDS011;40029;58.708;50.190;2023-06-14T09:34:37;3.17;;;1.85;;
54121;SDS011;40029;58.708;50.190;2023-06-14T09:37:08;7.95;;;2.63;;
54121;SDS011;40029;58.708;50.190;2023-06-14T09:39:49;2.38;;;1.60;;
54121;SDS011;40029;58.708;50.190;2023-06-14T09:42:40;5.40;;;1.70;;
54121;SDS011;40029;58.708;50.190;2023-06-14T09:45:12;4.20;;;2.03;;
54121;SDS011;40029;58.708;50.190;2023-06-14T09:47:44;3.58;;;2.13;;
54121;SDS011;40029;58.708;50.190;2023-06-14T09:50:17;3.38;;;1.30;;
54121;SDS011;40029;58.708;50.190;2023-06-14T09:52:49;3.85;;;1.90;;
54121;SDS011;40029;58.708;50.190;2023-06-14T09:55:24;2.60;;;1.95;;
54121;SDS011;40029;58.708;50.190;2023-06-14T09:58:02;3.67;;;1.98;;
54121;SDS011;40029;58.708;50.190;2023-06-14T10:00:36;3.75;;;1.80;;
54121;SDS011;40029;58.708;50.190;2023-06-14T10:03:16;6.55;;;1.80;;
54121;SDS011;40029;58.708;50.190;2023-06-14T10:05:57;5.78;;;1.83;;
54121;SDS011;40029;58.708;50.190;2023-06-14T10:08:55;4.28;;;2.00;;
54121;SDS011;40029;58.708;50.190;2023-06-14T10:11:28;7.63;;;1.80;;
54121;SDS011;40029;58.708;50.190;2023-06-14T10:14:00;9.50;;;1.92;;
54121;SDS011;40029;58.708;50.190;2023-06-14T10:17:17;2.78;;;1.60;;
54121;SDS011;40029;58.708;50.190;2023-06-14T10:19:42;2.72;;;2.00;;
54121;SDS011;40029;58.708;50.190;2023-06-14T10:22:44;36.47;;;3.72;;
54121;SDS011;40029;58.708;50.190;2023-06-14T10:25:29;6.93;;;2.08;;
54121;SDS011;40029;58.708;50.190;2023-06-14T10:33:50;7.78;;;1.85;;
54121;SDS011;40029;58.708;50.190;2023-06-14T10:36:30;5.65;;;2.55;;
54121;SDS011;40029;58.708;50.190;2023-06-14T10:39:09;5.35;;;2.65;;
54121;SDS011;40029;58.708;50.190;2023-06-14T10:42:03;9.90;;;1.77;;
54121;SDS011;40029;58.708;50.190;2023-06-14T10:50:03;7.65;;;1.73;;
54121;SDS011;40029;58.708;50.190;2023-06-14T10:52:40;4.47;;;1.58;;
54121;SDS011;40029;58.708;50.190;2023-06-14T10:55:15;4.93;;;1.90;;
54121;SDS011;40029;58.708;50.190;2023-06-14T10:57:53;2.55;;;1.67;;
54121;SDS011;40029;58.708;50.190;2023-06-14T11:00:29;14.73;;;2.85;;
54121;SDS011;40029;58.708;50.190;2023-06-14T11:06:15;2.60;;;1.60;;
54121;SDS011;40029;58.708;50.190;2023-06-14T11:11:41;2.28;;;1.40;;
54121;SDS011;40029;58.708;50.190;2023-06-14T11:14:32;3.80;;;1.67;;
54121;SDS011;40029;58.708;50.190;2023-06-14T11:17:03;2.25;;;1.75;;
54121;SDS011;40029;58.708;50.190;2023-06-14T11:19:35;2.45;;;1.83;;
54121;SDS011;40029;58.708;50.190;2023-06-14T11:22:06;1.73;;;1.50;;
54121;SDS011;40029;58.708;50.190;2023-06-14T11:24:38;4.75;;;2.03;;
54121;SDS011;40029;58.708;50.190;2023-06-14T11:27:09;2.80;;;2.33;;
54121;SDS011;40029;58.708;50.190;2023-06-14T11:29:58;1.70;;;1.38;;
54121;SDS011;40029;58.708;50.190;2023-06-14T11:32:31;17.10;;;2.65;;
54121;SDS011;40029;58.708;50.190;2023-06-14T11:35:23;21.60;;;3.40;;
54121;SDS011;40029;58.708;50.190;2023-06-14T11:37:55;2.67;;;1.20;;
54121;SDS011;40029;58.708;50.190;2023-06-14T11:40:31;28.73;;;3.88;;
54121;SDS011;40029;58.708;50.190;2023-06-14T11:43:02;1.90;;;1.70;;
54121;SDS011;40029;58.708;50.190;2023-06-14T11:45:52;2.35;;;1.70;;
54121;SDS011;40029;58.708;50.190;2023-06-14T11:48:23;7.20;;;2.03;;
54121;SDS011;40029;58.708;50.190;2023-06-14T11:51:06;6.45;;;2.20;;
54121;SDS011;40029;58.708;50.190;2023-06-14T11:53:56;4.05;;;1.70;;
54121;SDS011;40029;58.708;50.190;2023-06-14T11:56:29;29.05;;;3.35;;
54121;SDS011;40029;58.708;50.190;2023-06-14T11:59:04;34.75;;;4.00;;
54121;SDS011;40029;58.708;50.190;2023-06-14T12:01:54;4.35;;;3.05;;
54121;SDS011;40029;58.708;50.190;2023-06-14T12:04:47;2.85;;;1.88;;
54121;SDS011;40029;58.708;50.190;2023-06-14T12:07:19;1.80;;;1.50;;
54121;SDS011;40029;58.708;50.190;2023-06-14T12:12:24;4.50;;;1.55;;
54121;SDS011;40029;58.708;50.190;2023-06-14T12:14:56;5.40;;;1.88;;
54121;SDS011;40029;58.708;50.190;2023-06-14T12:17:31;3.97;;;1.95;;
54121;SDS011;40029;58.708;50.190;2023-06-14T12:20:28;2.47;;;1.40;;
54121;SDS011;40029;58.708;50.190;2023-06-14T12:23:02;12.77;;;2.00;;
54121;SDS011;40029;58.708;50.190;2023-06-14T12:25:35;5.25;;;1.85;;
54121;SDS011;40029;58.708;50.190;2023-06-14T12:28:08;6.72;;;1.70;;
54121;SDS011;40029;58.708;50.190;2023-06-14T12:30:40;2.17;;;1.98;;
54121;SDS011;40029;58.708;50.190;2023-06-14T12:33:11;1.92;;;1.45;;
54121;SDS011;40029;58.708;50.190;2023-06-14T12:35:42;11.27;;;2.10;;
54121;SDS011;40029;58.708;50.190;2023-06-14T12:38:32;14.98;;;2.42;;
54121;SDS011;40029;58.708;50.190;2023-06-14T12:41:23;2.50;;;1.90;;
54121;SDS011;40029;58.708;50.190;2023-06-14T12:43:55;35.63;;;3.53;;
54121;SDS011;40029;58.708;50.190;2023-06-14T12:46:28;5.27;;;3.00;;
54121;SDS011;40029;58.708;50.190;2023-06-14T12:49:00;5.80;;;1.92;;
54121;SDS011;40029;58.708;50.190;2023-06-14T12:51:32;7.65;;;3.50;;
54121;SDS011;40029;58.708;50.190;2023-06-14T12:54:21;3.53;;;2.45;;
54121;SDS011;40029;58.708;50.190;2023-06-14T12:56:56;3.03;;;2.50;;
54121;SDS011;40029;58.708;50.190;2023-06-14T12:59:27;4.38;;;2.30;;
54121;SDS011;40029;58.708;50.190;2023-06-14T13:02:13;4.03;;;1.50;;
54121;SDS011;40029;58.708;50.190;2023-06-14T13:04:45;18.05;;;2.42;;
54121;SDS011;40029;58.708;50.190;2023-06-14T13:07:17;5.25;;;2.70;;
54121;SDS011;40029;58.708;50.190;2023-06-14T13:09:48;3.78;;;1.75;;
54121;SDS011;40029;58.708;50.190;2023-06-14T13:12:37;2.15;;;1.75;;
54121;SDS011;40029;58.708;50.190;2023-06-14T13:15:08;8.60;;;2.55;;
54121;SDS011;40029;58.708;50.190;2023-06-14T13:17:58;3.65;;;1.70;;
54121;SDS011;40029;58.708;50.190;2023-06-14T13:20:29;2.13;;;1.50;;
54121;SDS011;40029;58.708;50.190;2023-06-14T13:23:01;7.68;;;1.83;;
54121;SDS011;40029;58.708;50.190;2023-06-14T13:25:34;3.35;;;1.60;;
54121;SDS011;40029;58.708;50.190;2023-06-14T13:28:06;9.80;;;1.70;;
54121;SDS011;40029;58.708;50.190;2023-06-14T13:30:37;10.32;;;1.75;;
54121;SDS011;40029;58.708;50.190;2023-06-14T13:33:09;15.48;;;2.17;;
54121;SDS011;40029;58.708;50.190;2023-06-14T13:35:40;29.80;;;3.10;;
54121;SDS011;40029;58.708;50.190;2023-06-14T13:38:11;3.53;;;2.40;;
54121;SDS011;40029;58.708;50.190;2023-06-14T13:40:42;2.63;;;2.00;;
54121;SDS011;40029;58.708;50.190;2023-06-14T13:43:13;5.85;;;2.47;;
54121;SDS011;40029;58.708;50.190;2023-06-14T13:45:45;2.50;;;2.30;;
54121;SDS011;40029;58.708;50.190;2023-06-14T13:48:16;31.05;;;4.35;;
54121;SDS011;40029;58.708;50.190;2023-06-14T13:50:47;5.43;;;2.90;;
54121;SDS011;40029;58.708;50.190;2023-06-14T13:53:19;9.25;;;2.90;;
54121;SDS011;40029;58.708;50.190;2023-06-14T13:55:50;16.23;;;2.80;;
54121;SDS011;40029;58.708;50.190;2023-06-14T13:58:41;11.73;;;3.55;;
54121;SDS011;40029;58.708;50.190;2023-06-14T14:01:12;7.72;;;3.30;;
54121;SDS011;40029;58.708;50.190;2023-06-14T14:03:43;5.43;;;3.13;;
54121;SDS011;40029;58.708;50.190;2023-06-14T14:06:15;4.32;;;2.28;;
54121;SDS011;40029;58.708;50.190;2023-06-14T14:08:47;4.47;;;2.53;;
54121;SDS011;40029;58.708;50.190;2023-06-14T14:11:18;9.32;;;2.72;;
54121;SDS011;40029;58.708;50.190;2023-06-14T14:13:51;14.57;;;2.60;;
54121;SDS011;40029;58.708;50.190;2023-06-14T14:16:22;2.10;;;1.80;;
54121;SDS011;40029;58.708;50.190;2023-06-14T14:19:11;9.32;;;2.63;;
54121;SDS011;40029;58.708;50.190;2023-06-14T14:21:43;10.95;;;2.67;;
54121;SDS011;40029;58.708;50.190;2023-06-14T14:24:14;35.00;;;4.28;;
54121;SDS011;40029;58.708;50.190;2023-06-14T14:26:46;3.72;;;2.13;;
54121;SDS011;40029;58.708;50.190;2023-06-14T14:29:20;6.07;;;2.25;;
54121;SDS011;40029;58.708;50.190;2023-06-14T14:31:52;3.75;;;2.28;;
54121;SDS011;40029;58.708;50.190;2023-06-14T14:34:26;15.48;;;2.80;;
54121;SDS011;40029;58.708;50.190;2023-06-14T14:37:16;9.02;;;2.50;;
54121;SDS011;40029;58.708;50.190;2023-06-14T14:40:06;5.93;;;1.80;;
54121;SDS011;40029;58.708;50.190;2023-06-14T14:42:39;6.37;;;1.83;;
54121;SDS011;40029;58.708;50.190;2023-06-14T14:45:10;7.13;;;1.85;;
54121;SDS011;40029;58.708;50.190;2023-06-14T14:47:41;33.13;;;3.30;;
54121;SDS011;40029;58.708;50.190;2023-06-14T14:50:31;9.10;;;1.85;;
54121;SDS011;40029;58.708;50.190;2023-06-14T14:53:03;5.15;;;2.17;;
54121;SDS011;40029;58.708;50.190;2023-06-14T14:55:47;7.90;;;1.85;;
54121;SDS011;40029;58.708;50.190;2023-06-14T14:58:36;12.98;;;3.00;;
54121;SDS011;40029;58.708;50.190;2023-06-14T15:01:07;2.58;;;1.88;;
54121;SDS011;40029;58.708;50.190;2023-06-14T15:03:39;7.68;;;3.00;;
54121;SDS011;40029;58.708;50.190;2023-06-14T15:06:10;9.20;;;1.98;;
54121;SDS011;40029;58.708;50.190;2023-06-14T15:08:41;9.18;;;2.03;;
54121;SDS011;40029;58.708;50.190;2023-06-14T15:11:13;4.90;;;2.20;;
54121;SDS011;40029;58.708;50.190;2023-06-14T15:13:44;2.28;;;1.83;;
54121;SDS011;40029;58.708;50.190;2023-06-14T15:16:15;3.72;;;2.05;;
54121;SDS011;40029;58.708;50.190;2023-06-14T15:18:46;6.28;;;1.90;;
54121;SDS011;40029;58.708;50.190;2023-06-14T15:21:18;4.35;;;2.08;;
54121;SDS011;40029;58.708;50.190;2023-06-14T15:24:08;5.00;;;1.95;;
54121;SDS011;40029;58.708;50.190;2023-06-14T15:26:40;3.22;;;2.40;;
54121;SDS011;40029;58.708;50.190;2023-06-14T15:29:29;9.25;;;2.15;;
54121;SDS011;40029;58.708;50.190;2023-06-14T15:32:01;16.15;;;2.67;;
54121;SDS011;40029;58.708;50.190;2023-06-14T15:34:32;3.30;;;1.63;;
54121;SDS011;40029;58.708;50.190;2023-06-14T15:37:03;21.73;;;2.78;;
54121;SDS011;40029;58.708;50.190;2023-06-14T15:39:35;3.45;;;2.08;;